createdAt,value
2022-11-29T00:00:49.392Z,114.55
2022-11-29T00:03:15.901Z,117.15
2022-11-29T00:05:42.591Z,116.47
2022-11-29T00:08:09.539Z,110.40
2022-11-29T00:10:36.851Z,109.40
2022-11-29T00:13:03.666Z,123.38
2022-11-29T00:15:29.909Z,136.90
2022-11-29T00:17:56.270Z,111.38
2022-11-29T00:20:22.661Z,113.90
2022-11-29T00:22:48.890Z,112.03
2022-11-29T00:25:15.325Z,122.03
2022-11-29T00:27:41.605Z,107.20
2022-11-29T00:30:08.186Z,119.10
2022-11-29T00:32:35.364Z,146.30
2022-11-29T00:35:06.584Z,148.05
2022-11-29T00:37:35.831Z,123.50
2022-11-29T00:40:02.272Z,114.25
2022-11-29T00:42:28.532Z,139.85
2022-11-29T00:44:54.777Z,114.40
2022-11-29T00:47:21.041Z,143.32
2022-11-29T00:49:47.363Z,101.72
2022-11-29T00:52:13.724Z,104.88
2022-11-29T00:54:40.033Z,108.28
2022-11-29T00:57:06.351Z,123.05
2022-11-29T00:59:32.678Z,93.15
2022-11-29T01:01:59.044Z,107.05
2022-11-29T01:04:25.364Z,100.90
2022-11-29T01:06:52.514Z,123.35
2022-11-29T01:09:19.441Z,147.05
2022-11-29T01:11:45.772Z,104.25
2022-11-29T01:14:12.594Z,123.97
2022-11-29T01:16:38.928Z,138.45
2022-11-29T01:19:07.231Z,109.22
2022-11-29T01:21:33.558Z,192.93
2022-11-29T01:24:00.602Z,120.03
2022-11-29T01:26:27.899Z,110.88
2022-11-29T01:28:55.088Z,156.57
2022-11-29T01:31:25.780Z,112.25
2022-11-29T01:33:56.094Z,138.63
2022-11-29T01:36:22.564Z,104.78
2022-11-29T01:38:48.863Z,110.80
2022-11-29T01:41:20.020Z,145.60
2022-11-29T01:44:06.969Z,113.38
2022-11-29T01:46:34.512Z,135.27
2022-11-29T01:49:08.106Z,112.13
2022-11-29T01:51:35.842Z,103.18
2022-11-29T01:54:02.365Z,96.85
2022-11-29T01:56:29.591Z,98.50
2022-11-29T01:58:56.007Z,124.32
2022-11-29T02:01:22.525Z,89.35
2022-11-29T02:03:48.909Z,101.00
2022-11-29T02:06:15.902Z,107.72
2022-11-29T02:08:42.718Z,94.88
2022-11-29T02:11:15.038Z,114.45
2022-11-29T02:14:00.311Z,117.97
2022-11-29T02:16:35.994Z,88.68
2022-11-29T02:19:24.968Z,103.72
2022-11-29T02:21:58.006Z,121.43
2022-11-29T02:24:47.717Z,91.72
2022-11-29T02:27:17.124Z,84.13
2022-11-29T02:29:50.475Z,87.57
2022-11-29T02:32:25.742Z,94.95
2022-11-29T02:34:56.006Z,89.63
2022-11-29T02:37:22.494Z,74.13
2022-11-29T02:39:51.539Z,149.30
2022-11-29T02:42:55.809Z,91.15
2022-11-29T02:45:36.274Z,78.95
2022-11-29T02:48:02.488Z,74.95
2022-11-29T02:50:37.684Z,90.07
2022-11-29T02:53:26.990Z,74.82
2022-11-29T02:55:59.436Z,85.30
2022-11-29T02:58:25.702Z,83.97
2022-11-29T03:00:57.946Z,104.80
2022-11-29T03:03:27.494Z,116.05
2022-11-29T03:05:59.082Z,81.07
2022-11-29T03:08:43.739Z,93.85
2022-11-29T03:11:17.500Z,92.57
2022-11-29T03:13:43.762Z,76.05
2022-11-29T03:16:28.546Z,87.93
2022-11-29T03:19:15.254Z,94.95
2022-11-29T03:21:44.350Z,145.55
2022-11-29T03:24:31.721Z,82.47
2022-11-29T03:27:06.637Z,81.70
2022-11-29T03:29:34.516Z,107.47
2022-11-29T03:32:09.737Z,114.75
2022-11-29T03:34:45.207Z,80.30
2022-11-29T03:37:11.825Z,81.00
2022-11-29T03:39:44.031Z,114.15
2022-11-29T03:42:14.050Z,107.72
2022-11-29T03:44:43.154Z,113.65
2022-11-29T03:47:14.572Z,88.97
2022-11-29T03:49:44.853Z,87.80
2022-11-29T03:52:20.056Z,107.65
2022-11-29T03:55:15.763Z,123.88
2022-11-29T03:57:42.258Z,109.45
2022-11-29T04:00:10.453Z,65.95
2022-11-29T04:02:55.178Z,231.52
2022-11-29T04:05:40.126Z,117.18
2022-11-29T04:08:20.670Z,220.40
2022-11-29T04:11:14.982Z,113.35
2022-11-29T04:13:50.193Z,153.23
2022-11-29T04:16:16.429Z,79.65
2022-11-29T04:18:42.708Z,93.55
2022-11-29T04:21:14.863Z,88.38
2022-11-29T04:24:00.036Z,100.00
2022-11-29T04:26:29.675Z,79.43
2022-11-29T04:29:04.529Z,101.00
2022-11-29T04:31:42.983Z,147.05
2022-11-29T04:34:09.250Z,74.53
2022-11-29T04:36:43.804Z,76.35
2022-11-29T04:39:12.840Z,108.10
2022-11-29T04:41:57.977Z,230.10
2022-11-29T04:44:30.289Z,100.22
2022-11-29T04:46:59.618Z,106.85
2022-11-29T04:49:36.216Z,96.43
2022-11-29T04:52:08.537Z,105.72
2022-11-29T04:54:39.360Z,121.65
2022-11-29T04:57:11.872Z,89.35
2022-11-29T04:59:54.013Z,86.20
2022-11-29T05:02:38.974Z,93.53
2022-11-29T05:05:17.525Z,130.85
2022-11-29T05:07:58.349Z,83.78
2022-11-29T05:10:30.466Z,82.88
2022-11-29T05:13:06.081Z,130.73
2022-11-29T05:20:43.117Z,94.93
2022-11-29T05:23:27.981Z,92.15
2022-11-29T05:25:57.366Z,89.57
2022-11-29T05:28:26.606Z,90.70
2022-11-29T05:31:19.484Z,202.00
2022-11-29T05:34:04.630Z,112.60
2022-11-29T05:36:40.414Z,80.93
2022-11-29T05:39:22.057Z,131.18
2022-11-29T05:42:12.652Z,111.65
2022-11-29T05:44:42.025Z,103.85
2022-11-29T05:47:10.188Z,170.07
2022-11-29T05:49:55.814Z,83.85
2022-11-29T05:52:31.192Z,110.40
2022-11-29T05:55:00.476Z,73.30
2022-11-29T05:57:32.894Z,84.78
2022-11-29T06:00:01.018Z,135.63
2022-11-29T06:02:27.489Z,78.55
2022-11-29T06:04:57.199Z,85.22
2022-11-29T06:07:27.902Z,96.25
2022-11-29T06:10:02.623Z,101.20
2022-11-29T06:12:31.865Z,100.63
2022-11-29T06:14:58.139Z,109.15
2022-11-29T06:17:48.675Z,227.25
2022-11-29T06:20:23.322Z,111.35
2022-11-29T06:23:07.546Z,90.10
2022-11-29T06:25:47.048Z,95.88
2022-11-29T06:28:13.294Z,163.13
2022-11-29T06:30:39.539Z,92.13
2022-11-29T06:33:13.931Z,164.13
2022-11-29T06:36:12.862Z,85.28
2022-11-29T06:38:39.159Z,92.97
2022-11-29T06:41:05.622Z,91.13
2022-11-29T06:43:32.085Z,122.20
2022-11-29T06:46:04.569Z,65.68
2022-11-29T06:48:35.361Z,91.78
2022-11-29T06:51:34.125Z,70.80
2022-11-29T06:54:06.336Z,61.28
2022-11-29T06:56:35.403Z,58.80
2022-11-29T06:59:17.095Z,61.60
2022-11-29T07:01:47.273Z,98.60
2022-11-29T07:04:45.414Z,128.75
2022-11-29T07:07:14.391Z,77.53
2022-11-29T07:09:41.473Z,129.95
2022-11-29T07:12:08.275Z,60.78
2022-11-29T07:14:35.320Z,71.88
2022-11-29T07:17:40.170Z,65.65
2022-11-29T07:20:07.952Z,62.33
2022-11-29T07:22:43.183Z,57.28
2022-11-29T07:25:27.783Z,87.57
2022-11-29T07:28:12.794Z,52.92
2022-11-29T07:30:53.349Z,70.50
2022-11-29T07:33:19.637Z,47.25
2022-11-29T07:35:50.625Z,74.88
2022-11-29T07:38:25.817Z,73.53
2022-11-29T07:40:56.941Z,90.97
2022-11-29T07:43:49.281Z,67.13
2022-11-29T07:46:15.660Z,50.13
2022-11-29T07:48:42.060Z,53.85
2022-11-29T07:51:08.796Z,72.78
2022-11-29T07:53:37.344Z,68.32
2022-11-29T07:56:03.678Z,47.38
2022-11-29T07:58:30.013Z,79.63
2022-11-29T08:00:56.370Z,47.47
2022-11-29T08:03:22.697Z,51.00
2022-11-29T08:05:48.990Z,53.25
2022-11-29T08:08:15.540Z,42.05
2022-11-29T08:10:42.065Z,89.80
2022-11-29T08:13:08.400Z,43.90
2022-11-29T08:15:35.138Z,44.85
2022-11-29T08:18:02.508Z,35.10
2022-11-29T08:20:28.835Z,33.45
2022-11-29T08:22:56.180Z,56.60
2022-11-29T08:25:22.815Z,52.88
2022-11-29T08:27:49.059Z,35.75
2022-11-29T08:30:18.554Z,37.75
2022-11-29T08:32:49.929Z,44.15
2022-11-29T08:35:18.807Z,38.85
2022-11-29T08:37:45.101Z,45.97
2022-11-29T08:40:12.011Z,45.50
2022-11-29T08:42:38.307Z,50.10
2022-11-29T08:45:06.221Z,53.75
2022-11-29T08:47:35.750Z,60.35
2022-11-29T08:50:03.030Z,51.30
2022-11-29T08:52:48.839Z,45.75
2022-11-29T08:55:15.557Z,46.90
2022-11-29T08:57:42.120Z,48.35
2022-11-29T09:00:08.830Z,42.13
2022-11-29T09:02:35.872Z,66.43
2022-11-29T09:05:02.489Z,45.85
2022-11-29T09:07:28.846Z,48.10
2022-11-29T09:09:55.174Z,47.05
2022-11-29T09:12:21.470Z,54.13
2022-11-29T09:14:47.752Z,56.25
2022-11-29T09:17:14.083Z,48.80
2022-11-29T09:19:40.826Z,43.78
2022-11-29T09:22:07.151Z,42.88
2022-11-29T09:24:34.001Z,42.65
2022-11-29T09:27:00.317Z,45.72
2022-11-29T09:29:26.722Z,39.10
2022-11-29T09:31:53.146Z,47.50
2022-11-29T09:34:19.517Z,37.00
2022-11-29T09:36:45.896Z,33.55
2022-11-29T09:39:15.260Z,37.42
2022-11-29T09:41:59.924Z,32.72
2022-11-29T09:44:38.251Z,36.53
2022-11-29T09:47:21.681Z,23.40
2022-11-29T09:50:06.724Z,18.40
2022-11-29T09:52:42.089Z,26.67
2022-11-29T09:55:21.405Z,25.58
2022-11-29T09:57:48.831Z,24.48
2022-11-29T10:00:16.072Z,28.60
2022-11-29T10:02:47.563Z,31.70
2022-11-29T10:05:20.706Z,37.60
2022-11-29T10:08:07.213Z,35.72
2022-11-29T10:10:41.038Z,36.33
2022-11-29T10:13:13.139Z,34.13
2022-11-29T10:15:42.054Z,36.28
2022-11-29T10:18:11.060Z,45.30
2022-11-29T10:20:42.496Z,36.85
2022-11-29T10:23:29.693Z,36.40
2022-11-29T10:25:57.289Z,42.15
2022-11-29T10:28:30.597Z,41.80
2022-11-29T10:31:00.313Z,35.25
2022-11-29T10:33:28.488Z,34.65
2022-11-29T10:35:57.391Z,37.92
2022-11-29T10:38:31.216Z,34.65
2022-11-29T10:41:01.623Z,36.17
2022-11-29T10:43:30.258Z,41.33
2022-11-29T10:45:58.734Z,34.90
2022-11-29T10:48:27.363Z,41.70
2022-11-29T10:50:53.822Z,55.15
2022-11-29T10:53:23.211Z,49.95
2022-11-29T10:55:51.817Z,35.03
2022-11-29T10:58:24.736Z,35.67
2022-11-29T11:01:01.600Z,32.28
2022-11-29T11:03:35.666Z,30.77
2022-11-29T11:06:22.276Z,31.55
2022-11-29T11:09:08.572Z,44.60
2022-11-29T11:11:34.889Z,38.45
2022-11-29T11:14:03.551Z,30.83
2022-11-29T11:16:35.604Z,41.33
2022-11-29T11:19:23.560Z,35.47
2022-11-29T11:21:49.889Z,33.08
2022-11-29T11:24:23.733Z,39.40
2022-11-29T11:26:50.253Z,41.88
2022-11-29T11:29:20.960Z,39.55
2022-11-29T11:31:52.176Z,28.98
2022-11-29T11:34:31.571Z,28.10
2022-11-29T11:37:16.406Z,31.13
2022-11-29T11:39:43.521Z,36.25
2022-11-29T11:42:33.762Z,34.63
2022-11-29T11:45:00.674Z,39.25
2022-11-29T11:47:28.614Z,44.88
2022-11-29T11:50:02.237Z,43.60
2022-11-29T11:52:52.320Z,36.85
2022-11-29T11:55:21.557Z,33.20
2022-11-29T11:58:09.377Z,35.70
2022-11-29T12:01:03.931Z,34.15
2022-11-29T12:03:45.958Z,29.15
2022-11-29T12:06:27.877Z,31.83
2022-11-29T12:09:03.762Z,30.42
2022-11-29T12:11:33.899Z,31.58
2022-11-29T12:14:02.083Z,31.95
2022-11-29T12:16:30.115Z,31.67
2022-11-29T12:19:00.652Z,31.05
2022-11-29T12:21:28.521Z,30.73
2022-11-29T12:23:58.488Z,29.75
2022-11-29T12:26:56.012Z,32.20
2022-11-29T12:29:15.139Z,34.45
2022-11-29T12:31:44.412Z,31.55
2022-11-29T12:34:32.459Z,31.98
2022-11-29T12:37:07.741Z,36.13
2022-11-29T12:39:52.892Z,25.90
2022-11-29T12:42:22.320Z,33.65
2022-11-29T12:44:51.661Z,28.80
2022-11-29T12:47:37.230Z,32.20
2022-11-29T12:50:09.635Z,29.85
2022-11-29T12:52:38.956Z,30.25
2022-11-29T12:55:24.070Z,39.67
2022-11-29T12:57:59.780Z,25.53
2022-11-29T13:00:28.745Z,24.33
2022-11-29T13:03:00.578Z,29.05
2022-11-29T13:05:30.078Z,30.25
2022-11-29T13:08:04.826Z,33.10
2022-11-29T13:10:49.861Z,22.83
2022-11-29T13:13:31.281Z,31.60
2022-11-29T13:16:05.837Z,29.48
2022-11-29T13:18:47.095Z,29.77
2022-11-29T13:21:19.305Z,32.53
2022-11-29T13:26:37.694Z,29.67
2022-11-29T13:29:04.642Z,27.05
2022-11-29T13:31:31.188Z,24.40
2022-11-29T13:34:09.808Z,24.02
2022-11-29T13:36:54.351Z,29.75
2022-11-29T13:39:29.901Z,32.25
2022-11-29T13:44:22.573Z,22.98
2022-11-29T13:46:51.965Z,28.55
2022-11-29T13:49:36.929Z,27.60
2022-11-29T13:52:04.411Z,31.38
2022-11-29T13:54:31.806Z,29.58
2022-11-29T13:57:05.171Z,28.67
2022-11-29T13:59:32.559Z,28.08
2022-11-29T14:01:59.202Z,25.35
2022-11-29T14:04:39.162Z,26.77
2022-11-29T14:07:05.408Z,25.17
2022-11-29T14:09:34.457Z,27.33
2022-11-29T14:12:00.830Z,30.08
2022-11-29T14:14:27.120Z,24.27
2022-11-29T14:16:55.473Z,25.98
2022-11-29T14:19:33.466Z,25.33
2022-11-29T14:22:03.380Z,25.63
2022-11-29T14:24:32.445Z,25.30
2022-11-29T14:27:08.036Z,24.85
2022-11-29T14:32:00.530Z,24.55
2022-11-29T14:34:32.261Z,20.92
2022-11-29T14:37:08.650Z,27.50
2022-11-29T14:39:37.694Z,25.75
2022-11-29T14:42:17.104Z,25.10
2022-11-29T14:44:45.520Z,24.13
2022-11-29T14:47:31.660Z,23.85
2022-11-29T14:52:28.659Z,21.52
2022-11-29T14:54:55.832Z,25.20
2022-11-29T14:57:41.288Z,24.67
2022-11-29T15:00:12.174Z,28.37
2022-11-29T15:02:45.813Z,28.08
2022-11-29T15:05:18.539Z,31.20
2022-11-29T15:07:47.657Z,25.45
2022-11-29T15:10:22.646Z,22.30
2022-11-29T15:12:49.232Z,24.40
2022-11-29T15:15:23.903Z,24.40
2022-11-29T15:18:00.935Z,36.77
2022-11-29T15:20:37.498Z,29.52
2022-11-29T15:23:05.551Z,24.33
2022-11-29T15:25:32.252Z,26.02
2022-11-29T15:28:00.273Z,29.35
2022-11-29T15:30:26.690Z,40.03
2022-11-29T15:32:52.977Z,27.48
2022-11-29T15:35:19.782Z,25.15
2022-11-29T15:37:47.024Z,36.10
2022-11-29T15:40:15.162Z,37.20
2022-11-29T15:42:47.082Z,32.50
2022-11-29T15:45:27.168Z,33.15
2022-11-29T15:47:53.849Z,34.47
2022-11-29T15:50:27.343Z,36.58
2022-11-29T15:52:57.500Z,34.90
2022-11-29T15:55:24.240Z,31.77
2022-11-29T15:57:52.201Z,33.08
2022-11-29T16:00:20.291Z,31.92
2022-11-29T16:02:50.243Z,34.53
2022-11-29T16:05:20.509Z,47.08
2022-11-29T16:07:47.150Z,42.30
2022-11-29T16:10:18.023Z,35.20
2022-11-29T16:12:58.370Z,38.80
2022-11-29T16:15:32.053Z,41.85
2022-11-29T16:18:15.320Z,39.80
2022-11-29T16:20:41.584Z,31.92
2022-11-29T16:23:07.865Z,40.97
2022-11-29T16:25:37.601Z,37.72
2022-11-29T16:28:05.985Z,37.50
2022-11-29T16:30:32.340Z,45.80
2022-11-29T16:32:59.812Z,36.05
2022-11-29T16:35:27.270Z,40.72
2022-11-29T16:37:53.664Z,33.72
2022-11-29T16:40:24.585Z,40.35
2022-11-29T16:43:03.341Z,51.75
2022-11-29T16:45:33.391Z,53.40
2022-11-29T16:48:00.258Z,34.35
2022-11-29T16:50:27.509Z,35.13
2022-11-29T16:52:56.777Z,41.33
2022-11-29T16:55:23.445Z,37.63
2022-11-29T16:57:49.813Z,36.03
2022-11-29T17:00:16.292Z,35.40
2022-11-29T17:02:42.646Z,37.08
2022-11-29T17:05:09.033Z,33.75
2022-11-29T17:07:37.076Z,42.47
2022-11-29T17:10:05.071Z,37.00
2022-11-29T17:12:31.610Z,33.38
2022-11-29T17:14:57.863Z,29.80
2022-11-29T17:17:24.265Z,28.83
2022-11-29T17:19:50.526Z,27.20
2022-11-29T17:22:16.824Z,33.90
2022-11-29T17:24:48.029Z,33.72
2022-11-29T17:27:15.115Z,32.42
2022-11-29T17:29:42.502Z,43.95
2022-11-29T17:32:08.888Z,34.03
2022-11-29T17:34:35.224Z,33.75
2022-11-29T17:37:01.592Z,32.88
2022-11-29T17:39:27.915Z,25.80
2022-11-29T17:41:54.354Z,33.03
2022-11-29T17:44:20.744Z,27.02
2022-11-29T17:46:47.046Z,30.38
2022-11-29T17:49:13.571Z,26.63
2022-11-29T17:51:51.665Z,24.77
2022-11-29T17:54:18.387Z,24.13
2022-11-29T17:56:44.753Z,26.40
2022-11-29T17:59:11.412Z,30.17
2022-11-29T18:01:37.862Z,26.08
2022-11-29T18:04:05.442Z,29.25
2022-11-29T18:06:36.196Z,29.80
2022-11-29T18:09:05.933Z,28.40
2022-11-29T18:11:41.667Z,26.88
2022-11-29T18:14:14.151Z,28.58
2022-11-29T18:16:40.964Z,30.10
2022-11-29T18:19:08.965Z,28.48
2022-11-29T18:21:35.815Z,27.13
2022-11-29T18:24:03.161Z,24.50
2022-11-29T18:26:30.010Z,24.35
2022-11-29T18:28:57.773Z,24.25
2022-11-29T18:31:25.251Z,29.63
2022-11-29T18:33:59.235Z,36.72
2022-11-29T18:36:26.710Z,20.80
2022-11-29T18:39:00.097Z,21.25
2022-11-29T18:41:28.186Z,24.05
2022-11-29T18:44:01.559Z,20.40
2022-11-29T18:46:32.265Z,21.30
2022-11-29T18:48:59.907Z,24.23
2022-11-29T18:51:26.476Z,21.88
2022-11-29T18:53:52.825Z,20.45
2022-11-29T18:56:22.150Z,18.35
2022-11-29T18:58:58.421Z,22.08
2022-11-29T19:01:26.093Z,23.23
2022-11-29T19:03:53.551Z,29.38
2022-11-29T19:06:21.014Z,46.53
2022-11-29T19:08:47.781Z,26.55
2022-11-29T19:11:21.306Z,23.23
2022-11-29T19:13:48.185Z,18.08
2022-11-29T19:16:15.981Z,19.25
2022-11-29T19:18:43.297Z,20.92
2022-11-29T19:21:13.712Z,25.30
2022-11-29T19:23:41.270Z,15.57
2022-11-29T19:26:08.725Z,24.75
2022-11-29T19:28:36.105Z,24.92
2022-11-29T19:31:02.554Z,20.80
2022-11-29T19:33:28.843Z,18.75
2022-11-29T19:35:55.146Z,19.20
2022-11-29T19:38:21.428Z,19.35
2022-11-29T19:40:47.844Z,18.13
2022-11-29T19:43:14.178Z,17.02
2022-11-29T19:45:40.719Z,15.63
2022-11-29T19:48:07.032Z,15.40
2022-11-29T19:50:33.263Z,18.85
2022-11-29T19:52:59.605Z,17.20
2022-11-29T19:55:25.931Z,16.92
2022-11-29T19:57:52.260Z,16.05
2022-11-29T20:00:18.959Z,19.48
2022-11-29T20:02:45.292Z,32.78
2022-11-29T20:05:12.496Z,23.15
2022-11-29T20:07:38.800Z,17.60
2022-11-29T20:10:07.023Z,19.52
2022-11-29T20:12:33.519Z,20.00
2022-11-29T20:15:01.004Z,24.30
2022-11-29T20:17:27.478Z,17.30
2022-11-29T20:19:53.845Z,25.92
2022-11-29T20:22:20.182Z,14.43
2022-11-29T20:24:46.504Z,20.77
2022-11-29T20:27:13.014Z,19.48
2022-11-29T20:29:39.306Z,19.38
2022-11-29T20:32:05.643Z,21.77
2022-11-29T20:34:32.005Z,19.83
2022-11-29T20:37:10.687Z,15.70
2022-11-29T20:39:40.071Z,25.02
2022-11-29T20:42:21.975Z,13.85
2022-11-29T20:44:55.476Z,18.65
2022-11-29T20:47:23.112Z,17.67
2022-11-29T20:49:49.853Z,14.25
2022-11-29T20:52:34.852Z,18.52
2022-11-29T20:55:01.254Z,12.45
2022-11-29T20:57:27.600Z,17.88
2022-11-29T20:59:54.167Z,18.58
2022-11-29T21:02:20.769Z,21.88
2022-11-29T21:04:47.169Z,15.80
2022-11-29T21:07:13.624Z,18.58
2022-11-29T21:09:39.933Z,12.25
2022-11-29T21:12:06.758Z,13.63
2022-11-29T21:14:33.497Z,13.57
2022-11-29T21:17:00.129Z,13.43
2022-11-29T21:19:26.617Z,14.02
2022-11-29T21:22:10.483Z,16.02
2022-11-29T21:24:55.456Z,19.25
2022-11-29T21:27:26.876Z,12.13
2022-11-29T21:29:53.339Z,14.45
2022-11-29T21:32:23.504Z,16.70
2022-11-29T21:34:49.934Z,16.25
2022-11-29T21:37:18.162Z,25.50
2022-11-29T21:39:44.583Z,22.33
2022-11-29T21:42:11.290Z,15.65
2022-11-29T21:44:37.567Z,18.08
2022-11-29T21:47:04.404Z,14.60
2022-11-29T21:49:30.936Z,19.02
2022-11-29T21:52:00.046Z,17.15
2022-11-29T21:54:26.894Z,22.73
2022-11-29T21:56:53.304Z,17.77
2022-11-29T21:59:19.546Z,18.55
2022-11-29T22:01:45.948Z,15.82
2022-11-29T22:04:12.750Z,16.23
2022-11-29T22:06:39.142Z,20.08
2022-11-29T22:09:07.636Z,17.08
2022-11-29T22:11:35.362Z,14.52
2022-11-29T22:14:13.765Z,21.95
2022-11-29T22:16:42.540Z,17.85
2022-11-29T22:19:10.061Z,21.35
2022-11-29T22:21:36.325Z,19.05
2022-11-29T22:24:02.631Z,19.55
2022-11-29T22:26:28.929Z,14.77
2022-11-29T22:28:55.443Z,21.63
2022-11-29T22:31:21.762Z,18.35
2022-11-29T22:33:48.019Z,19.98
2022-11-29T22:36:14.419Z,21.42
2022-11-29T22:38:40.811Z,21.20
2022-11-29T22:41:11.519Z,21.40
2022-11-29T22:43:38.275Z,22.70
2022-11-29T22:46:08.452Z,20.80
2022-11-29T22:48:38.645Z,20.48
2022-11-29T22:51:10.473Z,24.45
2022-11-29T22:53:37.481Z,27.35
2022-11-29T22:56:04.448Z,24.27
2022-11-29T22:58:30.874Z,24.90
2022-11-29T23:01:04.706Z,25.63
2022-11-29T23:03:34.937Z,24.33
2022-11-29T23:06:12.553Z,27.52
2022-11-29T23:08:39.484Z,22.42
2022-11-29T23:11:09.050Z,25.80
2022-11-29T23:13:36.788Z,26.05
2022-11-29T23:16:04.047Z,26.50
2022-11-29T23:18:30.602Z,27.50
2022-11-29T23:21:04.201Z,23.60
2022-11-29T23:23:30.989Z,28.40
2022-11-29T23:25:57.607Z,24.52
2022-11-29T23:28:24.501Z,27.52
2022-11-29T23:30:51.081Z,26.58
2022-11-29T23:33:17.334Z,26.80
2022-11-29T23:35:43.918Z,28.50
2022-11-29T23:38:10.218Z,27.83
2022-11-29T23:40:36.534Z,23.30
2022-11-29T23:43:02.961Z,24.83
2022-11-29T23:45:29.294Z,27.05
2022-11-29T23:47:56.169Z,30.08
2022-11-29T23:50:23.255Z,28.52
2022-11-29T23:52:53.784Z,28.83
2022-11-29T23:55:20.473Z,29.30
2022-11-29T23:57:46.904Z,31.08
